SWR289 FAOR-LSZH
Flight info
| Callsign | SWR289 |
|---|---|
| Flight time | N/A |
| Altitude | 34000 |
| Route | VASUR3A VASUR UZ21 ITROL UQ25 RUDAS UT941 IBVAN/N0481F360 UT941 IBRIT UM998 KENUK/N0473F380 UM998 TIDOU/N0473F400 UM998 CSO UM2 CIRTA DCT BUKID DCT NEGAT DCT OMEDA DCT RAPUR DCT TORTU DCT ERTEV DCT CANNE Z651 KELIP |
| Aircraft | A333/H-SDE3GHIJ2J3J5M1RVWXY/LB2D1 |
Departure
| Time | N/A |
|---|---|
| Airport | O.R. Tambo International Airport (FAOR) |
Arrival
| Time | 2026-04-26 09:35 |
|---|---|
| Airport | Zürich Airport (LSZH) |
| Time | Latitude | Longitude | Altitude | Speed | Heading |
|---|---|---|---|---|---|
| 2026-04-26 08:29 | 41.06602 | 7.41539 | 40148 ft | 491 kts | 43° |
| 2026-04-26 08:29 | 41.09054 | 7.44689 | 40157 ft | 492 kts | 43° |
| 2026-04-26 08:30 | 41.14007 | 7.51064 | 40151 ft | 493 kts | 43° |
| 2026-04-26 08:30 | 41.18921 | 7.57400 | 40150 ft | 492 kts | 43° |
| 2026-04-26 08:31 | 41.23816 | 7.63727 | 40150 ft | 488 kts | 43° |
| 2026-04-26 08:31 | 41.28668 | 7.70012 | 40147 ft | 486 kts | 44° |
| 2026-04-26 08:32 | 41.33512 | 7.76301 | 40155 ft | 484 kts | 43° |
| 2026-04-26 08:32 | 41.38339 | 7.82581 | 40149 ft | 483 kts | 43° |
| 2026-04-26 08:33 | 41.43682 | 7.87872 | 40160 ft | 477 kts | 23° |
| 2026-04-26 08:33 | 41.49923 | 7.91012 | 40144 ft | 477 kts | 20° |
| 2026-04-26 08:34 | 41.56109 | 7.94302 | 40152 ft | 477 kts | 20° |
| 2026-04-26 08:34 | 41.62324 | 7.97649 | 40148 ft | 477 kts | 20° |
| 2026-04-26 08:35 | 41.68525 | 8.00999 | 40147 ft | 476 kts | 20° |
| 2026-04-26 08:35 | 41.74709 | 8.04346 | 40149 ft | 476 kts | 20° |
| 2026-04-26 08:36 | 41.80908 | 8.07709 | 40159 ft | 477 kts | 20° |
| 2026-04-26 08:36 | 41.87096 | 8.11073 | 40155 ft | 477 kts | 20° |
| 2026-04-26 08:37 | 41.93278 | 8.14440 | 40154 ft | 477 kts | 20° |
| 2026-04-26 08:37 | 41.99438 | 8.17803 | 40143 ft | 476 kts | 20° |
| 2026-04-26 08:38 | 42.05587 | 8.21167 | 40146 ft | 476 kts | 20° |
| 2026-04-26 08:38 | 42.11780 | 8.24562 | 40148 ft | 475 kts | 20° |
| 2026-04-26 08:39 | 42.17925 | 8.27938 | 40142 ft | 475 kts | 20° |
| 2026-04-26 08:39 | 42.24068 | 8.31320 | 40143 ft | 475 kts | 20° |
| 2026-04-26 08:40 | 42.30215 | 8.34710 | 40145 ft | 475 kts | 20° |
| 2026-04-26 08:40 | 42.36365 | 8.38110 | 40143 ft | 475 kts | 20° |
| 2026-04-26 08:41 | 42.42510 | 8.41513 | 40140 ft | 475 kts | 20° |
| 2026-04-26 08:41 | 42.48655 | 8.44924 | 40138 ft | 475 kts | 20° |
| 2026-04-26 08:42 | 42.54815 | 8.48351 | 40138 ft | 475 kts | 20° |
| 2026-04-26 08:42 | 42.60977 | 8.51786 | 40140 ft | 475 kts | 20° |
| 2026-04-26 08:43 | 42.67111 | 8.55212 | 40138 ft | 476 kts | 20° |
| 2026-04-26 08:43 | 42.73320 | 8.58689 | 40136 ft | 476 kts | 20° |
| 2026-04-26 08:44 | 42.79486 | 8.62147 | 40133 ft | 476 kts | 20° |
| 2026-04-26 08:44 | 42.85705 | 8.65644 | 40132 ft | 476 kts | 21° |
| 2026-04-26 08:45 | 42.91893 | 8.69131 | 40132 ft | 476 kts | 21° |
| 2026-04-26 08:45 | 42.98036 | 8.72600 | 40130 ft | 476 kts | 21° |
| 2026-04-26 08:46 | 43.04224 | 8.76101 | 40130 ft | 476 kts | 21° |
| 2026-04-26 08:46 | 43.10362 | 8.79582 | 40130 ft | 476 kts | 20° |
| 2026-04-26 08:47 | 43.16517 | 8.83079 | 40131 ft | 476 kts | 20° |
| 2026-04-26 08:47 | 43.22684 | 8.86592 | 40130 ft | 476 kts | 21° |
| 2026-04-26 08:48 | 43.28812 | 8.90089 | 40130 ft | 476 kts | 21° |
| 2026-04-26 08:48 | 43.34996 | 8.93628 | 40130 ft | 476 kts | 21° |
| 2026-04-26 08:49 | 43.41306 | 8.96036 | 40142 ft | 469 kts | 1° |
| 2026-04-26 08:49 | 43.47932 | 8.95874 | 40124 ft | 469 kts | 357° |
| 2026-04-26 08:50 | 43.54522 | 8.95838 | 40131 ft | 469 kts | 358° |
| 2026-04-26 08:50 | 43.61145 | 8.95833 | 40130 ft | 470 kts | 358° |
| 2026-04-26 08:51 | 43.71052 | 8.95622 | 40130 ft | 470 kts | 356° |
| 2026-04-26 08:52 | 43.77653 | 8.95429 | 40132 ft | 469 kts | 356° |
| 2026-04-26 08:52 | 43.84253 | 8.95235 | 40129 ft | 470 kts | 356° |
| 2026-04-26 08:53 | 43.90829 | 8.95041 | 40131 ft | 470 kts | 356° |
| 2026-04-26 08:53 | 43.97411 | 8.94846 | 40130 ft | 470 kts | 356° |
| 2026-04-26 08:54 | 44.03965 | 8.94653 | 40128 ft | 470 kts | 356° |
| 2026-04-26 08:54 | 44.10566 | 8.94457 | 40126 ft | 471 kts | 356° |
| 2026-04-26 08:55 | 44.17133 | 8.94261 | 40124 ft | 471 kts | 356° |
| 2026-04-26 08:55 | 44.23743 | 8.94064 | 40127 ft | 471 kts | 356° |
| 2026-04-26 08:56 | 44.30366 | 8.93866 | 40125 ft | 471 kts | 356° |
| 2026-04-26 08:56 | 44.36984 | 8.93669 | 40131 ft | 471 kts | 356° |
| 2026-04-26 08:57 | 44.43557 | 8.93472 | 40130 ft | 471 kts | 356° |
| 2026-04-26 08:57 | 44.50186 | 8.93272 | 40127 ft | 471 kts | 356° |
| 2026-04-26 08:58 | 44.56790 | 8.93074 | 40121 ft | 471 kts | 356° |
| 2026-04-26 08:58 | 44.63385 | 8.92873 | 40117 ft | 471 kts | 356° |
| 2026-04-26 08:59 | 44.69969 | 8.92674 | 40115 ft | 472 kts | 356° |
| 2026-04-26 08:59 | 44.76584 | 8.92473 | 40113 ft | 472 kts | 356° |
| 2026-04-26 09:00 | 44.83221 | 8.92271 | 40107 ft | 472 kts | 356° |
| 2026-04-26 09:00 | 44.89823 | 8.92070 | 40107 ft | 472 kts | 356° |
| 2026-04-26 09:01 | 44.96450 | 8.91868 | 40098 ft | 472 kts | 356° |
| 2026-04-26 09:01 | 45.03072 | 8.91666 | 40096 ft | 472 kts | 356° |
| 2026-04-26 09:02 | 45.09671 | 8.91463 | 40099 ft | 472 kts | 356° |
| 2026-04-26 09:02 | 45.16298 | 8.91259 | 40093 ft | 472 kts | 356° |
| 2026-04-26 09:03 | 45.22917 | 8.91055 | 40096 ft | 472 kts | 356° |
| 2026-04-26 09:03 | 45.29493 | 8.90852 | 40102 ft | 472 kts | 356° |
| 2026-04-26 09:04 | 45.36142 | 8.90645 | 40105 ft | 473 kts | 356° |
| 2026-04-26 09:04 | 45.42803 | 8.90438 | 40107 ft | 473 kts | 356° |
| 2026-04-26 09:05 | 45.49412 | 8.90233 | 40109 ft | 473 kts | 356° |
| 2026-04-26 09:05 | 45.56083 | 8.90025 | 40104 ft | 473 kts | 356° |
| 2026-04-26 09:06 | 45.62703 | 8.89818 | 40105 ft | 473 kts | 356° |
| 2026-04-26 09:06 | 45.69308 | 8.89611 | 39895 ft | 468 kts | 356° |
| 2026-04-26 09:06 | 45.72546 | 8.89509 | 39598 ft | 457 kts | 356° |
| 2026-04-26 09:07 | 45.75727 | 8.89410 | 39301 ft | 447 kts | 356° |
| 2026-04-26 09:07 | 45.78863 | 8.89311 | 39014 ft | 445 kts | 356° |
| 2026-04-26 09:07 | 45.82028 | 8.89210 | 38737 ft | 449 kts | 356° |
| 2026-04-26 09:07 | 45.85154 | 8.89111 | 38457 ft | 452 kts | 356° |
| 2026-04-26 09:08 | 45.88353 | 8.89010 | 38137 ft | 452 kts | 356° |
| 2026-04-26 09:08 | 45.91505 | 8.88911 | 37820 ft | 450 kts | 356° |
| 2026-04-26 09:08 | 45.94687 | 8.88810 | 37503 ft | 450 kts | 356° |
| 2026-04-26 09:08 | 45.97835 | 8.88711 | 37188 ft | 450 kts | 356° |
| 2026-04-26 09:09 | 46.00972 | 8.88611 | 36884 ft | 451 kts | 356° |
| 2026-04-26 09:09 | 46.04140 | 8.88510 | 36617 ft | 453 kts | 356° |
| 2026-04-26 09:09 | 46.07351 | 8.88409 | 36373 ft | 453 kts | 356° |
| 2026-04-26 09:09 | 46.10538 | 8.88305 | 36140 ft | 454 kts | 356° |
| 2026-04-26 09:10 | 46.13692 | 8.88206 | 35902 ft | 454 kts | 356° |
| 2026-04-26 09:10 | 46.16889 | 8.88095 | 35661 ft | 454 kts | 355° |
| 2026-04-26 09:10 | 46.20045 | 8.87635 | 35425 ft | 453 kts | 352° |
| 2026-04-26 09:10 | 46.23226 | 8.87142 | 35197 ft | 454 kts | 352° |
| 2026-04-26 09:11 | 46.26394 | 8.86661 | 34960 ft | 455 kts | 352° |
| 2026-04-26 09:11 | 46.29559 | 8.86184 | 34714 ft | 455 kts | 352° |
| 2026-04-26 09:11 | 46.32752 | 8.85705 | 34442 ft | 455 kts | 352° |
| 2026-04-26 09:11 | 46.35932 | 8.85227 | 34170 ft | 456 kts | 352° |
| 2026-04-26 09:12 | 46.39071 | 8.84755 | 33901 ft | 456 kts | 352° |
| 2026-04-26 09:12 | 46.42275 | 8.84273 | 33627 ft | 456 kts | 352° |
| 2026-04-26 09:12 | 46.45472 | 8.83791 | 33353 ft | 457 kts | 352° |
| 2026-04-26 09:12 | 46.48635 | 8.83314 | 33085 ft | 457 kts | 352° |
| 2026-04-26 09:13 | 46.51814 | 8.82833 | 32814 ft | 459 kts | 352° |
| 2026-04-26 09:13 | 46.55054 | 8.82343 | 32537 ft | 460 kts | 352° |
| 2026-04-26 09:13 | 46.58271 | 8.81856 | 32263 ft | 461 kts | 352° |
| 2026-04-26 09:13 | 46.61439 | 8.81376 | 32050 ft | 456 kts | 352° |
| 2026-04-26 09:14 | 46.64582 | 8.80902 | 31677 ft | 435 kts | 352° |
| 2026-04-26 09:14 | 46.67556 | 8.80449 | 31476 ft | 439 kts | 352° |
| 2026-04-26 09:14 | 46.70654 | 8.79977 | 31260 ft | 453 kts | 352° |
| 2026-04-26 09:14 | 46.73809 | 8.79498 | 30390 ft | 453 kts | 352° |
| 2026-04-26 09:15 | 46.76936 | 8.79024 | 29462 ft | 441 kts | 352° |
| 2026-04-26 09:15 | 46.79981 | 8.78560 | 28659 ft | 436 kts | 352° |
| 2026-04-26 09:15 | 46.82983 | 8.78102 | 27846 ft | 431 kts | 352° |
| 2026-04-26 09:15 | 46.85981 | 8.77644 | 27025 ft | 426 kts | 352° |
| 2026-04-26 09:16 | 46.88885 | 8.77199 | 26223 ft | 421 kts | 352° |
| 2026-04-26 09:16 | 46.91790 | 8.76756 | 25412 ft | 417 kts | 352° |
| 2026-04-26 09:16 | 46.94667 | 8.76315 | 24607 ft | 411 kts | 352° |
| 2026-04-26 09:16 | 46.97448 | 8.75880 | 23787 ft | 393 kts | 352° |
| 2026-04-26 09:17 | 47.00129 | 8.75456 | 22958 ft | 376 kts | 352° |
| 2026-04-26 09:17 | 47.02655 | 8.75055 | 22157 ft | 363 kts | 352° |
| 2026-04-26 09:17 | 47.05141 | 8.74662 | 21351 ft | 351 kts | 353° |
| 2026-04-26 09:17 | 47.07518 | 8.74258 | 20574 ft | 340 kts | 349° |
| 2026-04-26 09:18 | 47.09825 | 8.73619 | 19780 ft | 331 kts | 348° |
| 2026-04-26 09:18 | 47.11969 | 8.72759 | 19005 ft | 322 kts | 338° |
| 2026-04-26 09:18 | 47.13904 | 8.71147 | 18222 ft | 314 kts | 317° |
| 2026-04-26 09:18 | 47.15382 | 8.68828 | 17496 ft | 307 kts | 310° |
| 2026-04-26 09:19 | 47.16735 | 8.66461 | 16740 ft | 303 kts | 309° |
| 2026-04-26 09:19 | 47.18046 | 8.64088 | 15984 ft | 299 kts | 309° |
| 2026-04-26 09:19 | 47.19332 | 8.61743 | 15271 ft | 296 kts | 309° |
| 2026-04-26 09:19 | 47.20586 | 8.59450 | 14971 ft | 281 kts | 309° |
| 2026-04-26 09:20 | 47.21807 | 8.57215 | 14955 ft | 282 kts | 309° |
| 2026-04-26 09:20 | 47.23043 | 8.54950 | 14819 ft | 283 kts | 309° |
| 2026-04-26 09:20 | 47.24263 | 8.52712 | 14655 ft | 283 kts | 309° |
| 2026-04-26 09:20 | 47.25494 | 8.50452 | 14328 ft | 285 kts | 309° |
| 2026-04-26 09:21 | 47.26734 | 8.48173 | 14026 ft | 283 kts | 309° |
| 2026-04-26 09:21 | 47.27953 | 8.45933 | 13695 ft | 282 kts | 309° |
| 2026-04-26 09:21 | 47.29179 | 8.43676 | 13332 ft | 283 kts | 309° |
| 2026-04-26 09:21 | 47.30416 | 8.41396 | 12950 ft | 284 kts | 309° |
| 2026-04-26 09:22 | 47.31640 | 8.39141 | 12589 ft | 284 kts | 310° |
| 2026-04-26 09:22 | 47.32873 | 8.36866 | 12211 ft | 285 kts | 310° |
| 2026-04-26 09:22 | 47.34100 | 8.34600 | 11841 ft | 285 kts | 309° |
| 2026-04-26 09:22 | 47.35336 | 8.32318 | 11395 ft | 279 kts | 309° |
| 2026-04-26 09:23 | 47.36515 | 8.30135 | 11091 ft | 271 kts | 309° |
| 2026-04-26 09:23 | 47.37694 | 8.27956 | 10804 ft | 270 kts | 309° |
| 2026-04-26 09:23 | 47.38863 | 8.25790 | 10503 ft | 270 kts | 309° |
| 2026-04-26 09:23 | 47.40019 | 8.23647 | 10203 ft | 267 kts | 309° |
| 2026-04-26 09:24 | 47.41189 | 8.21477 | 9919 ft | 267 kts | 309° |
| 2026-04-26 09:24 | 47.42327 | 8.19364 | 9662 ft | 266 kts | 309° |
| 2026-04-26 09:24 | 47.43480 | 8.17222 | 9410 ft | 265 kts | 309° |
| 2026-04-26 09:24 | 47.44617 | 8.15107 | 9154 ft | 264 kts | 310° |
| 2026-04-26 09:25 | 47.45757 | 8.12985 | 8904 ft | 263 kts | 310° |
| 2026-04-26 09:25 | 47.46890 | 8.10875 | 8660 ft | 262 kts | 310° |
| 2026-04-26 09:25 | 47.48076 | 8.08860 | 8405 ft | 261 kts | 323° |
| 2026-04-26 09:25 | 47.49686 | 8.07733 | 8190 ft | 256 kts | 352° |
| 2026-04-26 09:26 | 47.51436 | 8.07929 | 8010 ft | 252 kts | 21° |
| 2026-04-26 09:26 | 47.52840 | 8.09341 | 7833 ft | 238 kts | 50° |
| 2026-04-26 09:26 | 47.53810 | 8.11227 | 7682 ft | 222 kts | 53° |
| 2026-04-26 09:26 | 47.54676 | 8.12994 | 7527 ft | 206 kts | 54° |
| 2026-04-26 09:27 | 47.55481 | 8.14690 | 7262 ft | 199 kts | 55° |
| 2026-04-26 09:27 | 47.56266 | 8.16361 | 6937 ft | 197 kts | 55° |
| 2026-04-26 09:27 | 47.57035 | 8.18006 | 6608 ft | 195 kts | 56° |
| 2026-04-26 09:27 | 47.57806 | 8.19660 | 6482 ft | 192 kts | 56° |
| 2026-04-26 09:28 | 47.58560 | 8.21278 | 6416 ft | 193 kts | 55° |
| 2026-04-26 09:28 | 47.59321 | 8.22915 | 6347 ft | 193 kts | 56° |
| 2026-04-26 09:28 | 47.59952 | 8.24696 | 6211 ft | 194 kts | 66° |
| 2026-04-26 09:28 | 47.60500 | 8.26523 | 5991 ft | 193 kts | 65° |
| 2026-04-26 09:29 | 47.61054 | 8.28331 | 5790 ft | 193 kts | 65° |
| 2026-04-26 09:29 | 47.61601 | 8.30120 | 5585 ft | 192 kts | 65° |
| 2026-04-26 09:29 | 47.62143 | 8.31909 | 5378 ft | 191 kts | 68° |
| 2026-04-26 09:29 | 47.62402 | 8.33825 | 5196 ft | 186 kts | 91° |
| 2026-04-26 09:30 | 47.62102 | 8.35603 | 5054 ft | 175 kts | 120° |
| 2026-04-26 09:30 | 47.61166 | 8.36674 | 4801 ft | 172 kts | 155° |
| 2026-04-26 09:30 | 47.60157 | 8.37538 | 4625 ft | 158 kts | 141° |
| 2026-04-26 09:30 | 47.59290 | 8.38453 | 4353 ft | 149 kts | 140° |
| 2026-04-26 09:31 | 47.58545 | 8.39482 | 4173 ft | 146 kts | 132° |
| 2026-04-26 09:31 | 47.57812 | 8.40503 | 3966 ft | 146 kts | 134° |
| 2026-04-26 09:31 | 47.57068 | 8.41513 | 3769 ft | 146 kts | 134° |
| 2026-04-26 09:31 | 47.56331 | 8.42529 | 3571 ft | 145 kts | 134° |
| 2026-04-26 09:32 | 47.55587 | 8.43548 | 3371 ft | 145 kts | 134° |
| 2026-04-26 09:32 | 47.54843 | 8.44569 | 3184 ft | 145 kts | 134° |
| 2026-04-26 09:32 | 47.54102 | 8.45572 | 3005 ft | 146 kts | 134° |
| 2026-04-26 09:32 | 47.53337 | 8.46551 | 2825 ft | 144 kts | 136° |
| 2026-04-26 09:33 | 47.52588 | 8.47526 | 2620 ft | 139 kts | 133° |
| 2026-04-26 09:33 | 47.51877 | 8.48530 | 2427 ft | 140 kts | 133° |
| 2026-04-26 09:33 | 47.51134 | 8.49564 | 2211 ft | 150 kts | 133° |
| 2026-04-26 09:33 | 47.50403 | 8.50566 | 2057 ft | 152 kts | 134° |
| 2026-04-26 09:34 | 47.49635 | 8.51627 | 1869 ft | 151 kts | 133° |
| 2026-04-26 09:34 | 47.48879 | 8.52679 | 1620 ft | 148 kts | 135° |
| 2026-04-26 09:34 | 47.48153 | 8.53671 | 1429 ft | 139 kts | 134° |
| 2026-04-26 09:34 | 47.47463 | 8.54618 | 1387 ft | 122 kts | 139° |
| 2026-04-26 09:35 | 47.46991 | 8.55262 | 1389 ft | 71 kts | 139° |
| 2026-04-26 09:35 | 47.46704 | 8.55655 | 1389 ft | 50 kts | 137° |
| 2026-04-26 09:35 | 47.46508 | 8.55881 | 1388 ft | 31 kts | 153° |
| 2026-04-26 09:35 | 47.46363 | 8.55955 | 1386 ft | 12 kts | 164° |
| 2026-04-26 09:36 | 47.46286 | 8.55981 | 1388 ft | 9 kts | 167° |
| 2026-04-26 09:36 | 47.46250 | 8.55993 | 1389 ft | 0 kts | 169° |
| 2026-04-26 09:37 | 47.46174 | 8.55996 | 1389 ft | 17 kts | 184° |
| 2026-04-26 09:37 | 47.46044 | 8.55979 | 1389 ft | 19 kts | 185° |
| 2026-04-26 09:37 | 47.45956 | 8.55952 | 1389 ft | 7 kts | 212° |
| 2026-04-26 09:38 | 47.45939 | 8.55887 | 1389 ft | 7 kts | 274° |
| 2026-04-26 09:38 | 47.45943 | 8.55801 | 1389 ft | 11 kts | 275° |
| 2026-04-26 09:38 | 47.45947 | 8.55756 | 1389 ft | 0 kts | 276° |
| 2026-04-26 09:39 | 47.45947 | 8.55746 | 1389 ft | 0 kts | 276° |
| 2026-04-26 09:39 | 47.45971 | 8.55724 | 1389 ft | 7 kts | 349° |
| 2026-04-26 09:39 | 47.46027 | 8.55731 | 1389 ft | 1 kts | 5° |
| 2026-04-26 09:40 | 47.46031 | 8.55732 | 1389 ft | 0 kts | 5° |
| 2026-04-26 09:40 | 47.46030 | 8.55731 | 1389 ft | 0 kts | 5° |